createdAt,value
2019-03-08T00:00:33.645Z,4.00
2019-03-08T00:01:32.992Z,4.00
2019-03-08T00:02:32.991Z,4.00
2019-03-08T00:03:32.965Z,4.00
2019-03-08T00:04:32.996Z,4.00
2019-03-08T00:05:32.948Z,4.00
2019-03-08T00:06:32.939Z,4.00
2019-03-08T00:07:32.959Z,4.00
2019-03-08T00:08:33.724Z,4.00
2019-03-08T00:09:32.916Z,4.00
2019-03-08T00:10:32.893Z,4.00
2019-03-08T00:11:32.893Z,4.00
2019-03-08T00:12:32.911Z,4.00
2019-03-08T00:13:32.889Z,4.00
2019-03-08T00:14:32.851Z,4.00
2019-03-08T00:15:32.895Z,4.00
2019-03-08T00:16:32.833Z,4.00
2019-03-08T00:17:32.816Z,4.00
2019-03-08T00:18:32.848Z,4.00
2019-03-08T00:19:32.808Z,4.00
2019-03-08T00:20:32.785Z,4.00
2019-03-08T00:21:32.771Z,4.00
2019-03-08T00:22:32.767Z,4.00
2019-03-08T00:23:32.767Z,4.00
2019-03-08T00:24:32.791Z,4.00
2019-03-08T00:25:32.737Z,4.00
2019-03-08T00:26:32.722Z,4.00
2019-03-08T00:27:32.711Z,4.00
2019-03-08T00:28:32.720Z,4.00
2019-03-08T00:29:32.678Z,4.00
2019-03-08T00:30:32.672Z,4.00
2019-03-08T00:31:32.688Z,4.00
2019-03-08T00:32:32.650Z,8.00
2019-03-08T00:33:32.638Z,4.00
2019-03-08T00:34:32.658Z,4.00
2019-03-08T00:35:32.625Z,4.00
2019-03-08T00:36:32.611Z,4.00
2019-03-08T00:37:32.600Z,4.00
2019-03-08T00:38:32.586Z,4.00
2019-03-08T00:39:32.612Z,4.00
2019-03-08T00:40:32.573Z,4.00
2019-03-08T00:41:32.552Z,4.00
2019-03-08T00:42:32.572Z,8.00
2019-03-08T00:43:32.541Z,8.00
2019-03-08T00:44:32.518Z,8.00
2019-03-08T00:45:32.534Z,4.00
2019-03-08T00:46:32.496Z,4.00
2019-03-08T00:47:32.480Z,4.00
2019-03-08T00:48:32.491Z,4.00
2019-03-08T00:49:32.492Z,4.00
2019-03-08T00:50:32.450Z,4.00
2019-03-08T00:51:32.444Z,4.00
2019-03-08T00:52:33.141Z,4.00
2019-03-08T00:54:31.410Z,4.00
2019-03-08T00:55:32.427Z,4.00
2019-03-08T00:56:32.390Z,4.00
2019-03-08T00:57:35.132Z,8.00
2019-03-08T00:58:32.368Z,8.00
2019-03-08T00:59:35.134Z,4.00
2019-03-08T01:00:32.348Z,4.00
2019-03-08T01:01:32.378Z,4.00
2019-03-08T01:02:32.702Z,4.00
2019-03-08T01:03:32.306Z,4.00
2019-03-08T01:04:32.294Z,4.00
2019-03-08T01:05:32.302Z,4.00
2019-03-08T01:06:32.272Z,4.00
2019-03-08T01:08:31.249Z,4.00
2019-03-08T01:09:32.261Z,4.00
2019-03-08T01:10:32.237Z,4.00
2019-03-08T01:11:32.220Z,4.00
2019-03-08T01:12:34.172Z,4.00
2019-03-08T01:14:34.132Z,8.00
2019-03-08T01:15:32.180Z,4.00
2019-03-08T01:16:35.131Z,4.00
2019-03-08T01:17:32.176Z,4.00
2019-03-08T01:18:32.142Z,4.00
2019-03-08T01:19:32.143Z,4.00
2019-03-08T01:20:32.122Z,4.00
2019-03-08T01:21:32.108Z,4.00
2019-03-08T01:22:32.127Z,4.00
2019-03-08T01:23:32.110Z,8.00
2019-03-08T01:24:32.076Z,4.00
2019-03-08T01:25:34.622Z,4.00
2019-03-08T01:26:32.098Z,4.00
2019-03-08T01:27:32.044Z,4.00
2019-03-08T01:28:32.030Z,8.00
2019-03-08T01:29:32.023Z,4.00
2019-03-08T01:30:32.027Z,4.00
2019-03-08T01:31:32.007Z,4.00
2019-03-08T01:32:32.016Z,4.00
2019-03-08T01:33:31.976Z,4.00
2019-03-08T01:34:31.964Z,4.00
2019-03-08T01:35:31.955Z,4.00
2019-03-08T01:36:31.946Z,8.00
2019-03-08T01:37:31.934Z,4.00
2019-03-08T01:38:31.974Z,4.00
2019-03-08T01:39:31.925Z,8.00
2019-03-08T01:40:34.621Z,4.00
2019-03-08T01:41:31.906Z,4.00
2019-03-08T01:42:31.884Z,4.00
2019-03-08T01:43:31.874Z,4.00
2019-03-08T01:44:33.815Z,4.00
2019-03-08T01:45:31.856Z,4.00
2019-03-08T01:46:31.848Z,4.00
2019-03-08T01:47:31.822Z,4.00
2019-03-08T01:48:31.812Z,4.00
2019-03-08T01:49:31.804Z,4.00
2019-03-08T01:50:33.730Z,8.00
2019-03-08T01:51:31.796Z,4.00
2019-03-08T01:52:31.780Z,4.00
2019-03-08T01:53:31.754Z,8.00
2019-03-08T01:54:31.778Z,4.00
2019-03-08T01:55:31.741Z,4.00
2019-03-08T01:56:31.720Z,4.00
2019-03-08T01:57:31.726Z,4.00
2019-03-08T01:58:31.726Z,4.00
2019-03-08T01:59:31.714Z,4.00
2019-03-08T02:00:31.687Z,4.00
2019-03-08T02:01:31.670Z,4.00
2019-03-08T02:02:31.670Z,8.00
2019-03-08T02:03:32.116Z,8.00
2019-03-08T02:04:31.642Z,4.00
2019-03-08T02:05:31.628Z,4.00
2019-03-08T02:06:31.610Z,4.00
2019-03-08T02:07:33.194Z,4.00
2019-03-08T02:08:31.602Z,4.00
2019-03-08T02:09:31.580Z,8.00
2019-03-08T02:10:31.577Z,8.00
2019-03-08T02:11:31.561Z,4.00
2019-03-08T02:12:31.557Z,4.00
2019-03-08T02:13:31.536Z,4.00
2019-03-08T02:14:31.553Z,4.00
2019-03-08T02:15:32.116Z,4.00
2019-03-08T02:16:31.506Z,4.00
2019-03-08T02:17:31.500Z,4.00
2019-03-08T02:18:31.479Z,4.00
2019-03-08T02:19:31.468Z,4.00
2019-03-08T02:20:37.645Z,4.00
2019-03-08T02:21:31.444Z,4.00
2019-03-08T02:22:31.436Z,4.00
2019-03-08T02:23:31.428Z,4.00
2019-03-08T02:24:31.413Z,4.00
2019-03-08T02:25:31.433Z,4.00
2019-03-08T02:26:31.391Z,4.00
2019-03-08T02:27:31.421Z,4.00
2019-03-08T02:28:31.376Z,4.00
2019-03-08T02:29:31.367Z,4.00
2019-03-08T02:30:31.376Z,4.00
2019-03-08T02:32:30.328Z,4.00
2019-03-08T02:33:31.351Z,4.00
2019-03-08T02:34:30.307Z,4.00
2019-03-08T02:35:31.294Z,4.00
2019-03-08T02:36:31.280Z,4.00
2019-03-08T02:37:32.106Z,4.00
2019-03-08T02:38:31.258Z,4.00
2019-03-08T02:39:32.156Z,4.00
2019-03-08T02:40:31.256Z,4.00
2019-03-08T02:41:31.224Z,4.00
2019-03-08T02:42:31.216Z,4.00
2019-03-08T02:43:31.216Z,4.00
2019-03-08T02:44:31.199Z,4.00
2019-03-08T02:45:31.212Z,4.00
2019-03-08T02:46:31.178Z,32.00
2019-03-08T02:47:31.163Z,48.00
2019-03-08T02:48:31.155Z,52.00
2019-03-08T02:49:31.158Z,40.00
2019-03-08T02:50:31.164Z,44.00
2019-03-08T02:51:33.603Z,44.00
2019-03-08T02:52:31.122Z,40.00
2019-03-08T02:53:31.094Z,40.00
2019-03-08T02:54:31.089Z,44.00
2019-03-08T02:55:31.101Z,40.00
2019-03-08T02:56:31.063Z,40.00
2019-03-08T02:57:31.078Z,40.00
2019-03-08T02:58:31.056Z,40.00
2019-03-08T02:59:31.028Z,40.00
2019-03-08T03:00:31.045Z,40.00
2019-03-08T03:01:31.019Z,4.00
2019-03-08T03:02:30.999Z,4.00
2019-03-08T03:03:30.991Z,4.00
2019-03-08T03:04:30.975Z,4.00
2019-03-08T03:05:31.003Z,4.00
2019-03-08T03:06:30.948Z,4.00
2019-03-08T03:07:30.942Z,4.00
2019-03-08T03:08:30.937Z,4.00
2019-03-08T03:09:31.599Z,4.00
2019-03-08T03:10:30.906Z,4.00
2019-03-08T03:11:30.931Z,4.00
2019-03-08T03:12:30.892Z,4.00
2019-03-08T03:13:30.882Z,4.00
2019-03-08T03:14:30.868Z,4.00
2019-03-08T03:15:31.597Z,4.00
2019-03-08T03:16:30.847Z,4.00
2019-03-08T03:17:30.880Z,4.00
2019-03-08T03:18:30.823Z,4.00
2019-03-08T03:19:30.809Z,4.00
2019-03-08T03:20:51.805Z,4.00
2019-03-08T03:21:30.788Z,4.00
2019-03-08T03:22:30.810Z,4.00
2019-03-08T03:23:30.769Z,4.00
2019-03-08T03:24:31.599Z,4.00
2019-03-08T03:25:30.751Z,4.00
2019-03-08T03:26:30.731Z,4.00
2019-03-08T03:28:29.747Z,4.00
2019-03-08T03:30:29.696Z,4.00
2019-03-08T03:31:33.588Z,4.00
2019-03-08T03:32:30.669Z,4.00
2019-03-08T03:33:30.687Z,4.00
2019-03-08T03:34:30.654Z,4.00
2019-03-08T03:35:30.630Z,4.00
2019-03-08T03:36:30.621Z,4.00
2019-03-08T03:37:33.603Z,4.00
2019-03-08T03:38:30.601Z,4.00
2019-03-08T03:39:30.589Z,4.00
2019-03-08T03:40:30.590Z,4.00
2019-03-08T03:41:30.573Z,4.00
2019-03-08T03:42:30.593Z,4.00
2019-03-08T03:43:30.552Z,4.00
2019-03-08T03:45:29.528Z,4.00
2019-03-08T03:46:30.515Z,4.00
2019-03-08T03:47:30.508Z,4.00
2019-03-08T03:48:30.499Z,4.00
2019-03-08T03:49:30.483Z,4.00
2019-03-08T03:50:30.501Z,4.00
2019-03-08T03:51:30.462Z,4.00
2019-03-08T03:52:38.129Z,4.00
2019-03-08T03:53:30.444Z,4.00
2019-03-08T03:54:30.421Z,4.00
2019-03-08T03:55:30.438Z,4.00
2019-03-08T03:56:30.420Z,4.00
2019-03-08T03:57:30.391Z,4.00
2019-03-08T03:58:30.395Z,4.00
2019-03-08T03:59:30.372Z,4.00
2019-03-08T04:00:30.387Z,4.00
2019-03-08T04:01:30.352Z,4.00
2019-03-08T04:02:30.338Z,4.00
2019-03-08T04:03:30.326Z,4.00
2019-03-08T04:04:30.347Z,4.00
2019-03-08T04:05:33.629Z,4.00
2019-03-08T04:06:33.095Z,4.00
2019-03-08T04:07:30.285Z,4.00
2019-03-08T04:08:30.279Z,4.00
2019-03-08T04:09:30.263Z,4.00
2019-03-08T04:10:30.283Z,4.00
2019-03-08T04:11:30.243Z,4.00
2019-03-08T04:12:30.257Z,4.00
2019-03-08T04:13:30.213Z,4.00
2019-03-08T04:14:30.231Z,4.00
2019-03-08T04:15:30.226Z,4.00
2019-03-08T04:16:30.189Z,4.00
2019-03-08T04:17:33.082Z,4.00
2019-03-08T04:18:30.163Z,4.00
2019-03-08T04:19:30.155Z,4.00
2019-03-08T04:20:33.079Z,4.00
2019-03-08T04:21:30.129Z,4.00
2019-03-08T04:22:30.173Z,4.00
2019-03-08T04:23:30.115Z,4.00
2019-03-08T04:24:30.099Z,4.00
2019-03-08T04:25:30.111Z,4.00
2019-03-08T04:26:30.071Z,4.00
2019-03-08T04:27:30.065Z,4.00
2019-03-08T04:28:30.067Z,4.00
2019-03-08T04:29:30.043Z,4.00
2019-03-08T04:30:32.579Z,4.00
2019-03-08T04:31:30.025Z,4.00
2019-03-08T04:32:30.010Z,4.00
2019-03-08T04:33:30.003Z,4.00
2019-03-08T04:34:32.628Z,4.00
2019-03-08T04:35:29.979Z,4.00
2019-03-08T04:36:30.385Z,4.00
2019-03-08T04:37:29.954Z,4.00
2019-03-08T04:38:29.943Z,4.00
2019-03-08T04:39:29.931Z,4.00
2019-03-08T04:40:29.923Z,4.00
2019-03-08T04:41:29.909Z,4.00
2019-03-08T04:42:29.939Z,4.00
2019-03-08T04:43:29.896Z,4.00
2019-03-08T04:44:29.879Z,4.00
2019-03-08T04:45:29.863Z,4.00
2019-03-08T04:46:29.859Z,4.00
2019-03-08T04:47:29.923Z,4.00
2019-03-08T04:48:29.865Z,4.00
2019-03-08T04:49:29.819Z,4.00
2019-03-08T04:50:29.815Z,4.00
2019-03-08T04:51:29.803Z,4.00
2019-03-08T04:52:29.794Z,4.00
2019-03-08T04:53:29.813Z,4.00
2019-03-08T04:54:29.780Z,4.00
2019-03-08T04:55:29.755Z,4.00
2019-03-08T04:56:29.744Z,4.00
2019-03-08T04:57:29.763Z,4.00
2019-03-08T04:58:29.723Z,4.00
2019-03-08T05:00:28.703Z,4.00
2019-03-08T05:01:29.694Z,4.00
2019-03-08T05:02:29.709Z,4.00
2019-03-08T05:03:29.668Z,4.00
2019-03-08T05:04:32.565Z,4.00
2019-03-08T05:05:29.663Z,4.00
2019-03-08T05:06:29.651Z,4.00
2019-03-08T05:07:32.578Z,4.00
2019-03-08T05:08:32.562Z,4.00
2019-03-08T05:09:29.617Z,4.00
2019-03-08T05:10:29.597Z,8.00
2019-03-08T05:11:29.587Z,8.00
2019-03-08T05:12:31.008Z,8.00
2019-03-08T05:13:29.565Z,8.00
2019-03-08T05:14:29.559Z,8.00
2019-03-08T05:15:29.544Z,8.00
2019-03-08T05:16:29.523Z,12.00
2019-03-08T05:17:29.547Z,8.00
2019-03-08T05:18:29.531Z,12.00
2019-03-08T05:19:29.501Z,12.00
2019-03-08T05:20:29.487Z,12.00
2019-03-08T05:21:30.728Z,12.00
2019-03-08T05:22:29.463Z,16.00
2019-03-08T05:23:29.480Z,20.00
2019-03-08T05:24:29.440Z,20.00
2019-03-08T05:25:29.430Z,24.00
2019-03-08T05:26:29.442Z,24.00
2019-03-08T05:27:29.413Z,28.00
2019-03-08T05:28:29.433Z,32.00
2019-03-08T05:29:29.431Z,40.00
2019-03-08T05:30:29.382Z,40.00
2019-03-08T05:31:29.373Z,48.00
2019-03-08T05:32:29.366Z,52.00
2019-03-08T05:33:29.362Z,56.00
2019-03-08T05:34:29.334Z,64.00
2019-03-08T05:35:29.337Z,64.00
2019-03-08T05:36:29.305Z,72.00
2019-03-08T05:37:29.297Z,76.00
2019-03-08T05:38:29.327Z,84.00
2019-03-08T05:39:29.273Z,88.00
2019-03-08T05:40:29.262Z,96.00
2019-03-08T05:41:29.258Z,104.00
2019-03-08T05:42:29.249Z,112.00
2019-03-08T05:43:29.257Z,120.00
2019-03-08T05:44:29.224Z,132.00
2019-03-08T05:45:29.229Z,136.00
2019-03-08T05:46:29.200Z,148.00
2019-03-08T05:47:29.188Z,156.00
2019-03-08T05:48:29.203Z,164.00
2019-03-08T05:49:30.056Z,172.00
2019-03-08T05:50:29.152Z,180.00
2019-03-08T05:51:30.062Z,188.00
2019-03-08T05:52:29.139Z,192.00
2019-03-08T05:53:29.597Z,200.00
2019-03-08T05:54:29.110Z,212.00
2019-03-08T05:55:29.101Z,216.00
2019-03-08T05:56:29.086Z,224.00
2019-03-08T05:57:29.082Z,232.00
2019-03-08T05:58:29.136Z,240.00
2019-03-08T05:59:29.056Z,248.00
2019-03-08T06:00:32.025Z,252.00
2019-03-08T06:01:29.061Z,252.00
2019-03-08T06:02:29.025Z,260.00
2019-03-08T06:03:29.010Z,268.00
2019-03-08T06:04:29.004Z,268.00
2019-03-08T06:05:28.991Z,268.00
2019-03-08T06:06:29.014Z,272.00
2019-03-08T06:07:29.551Z,272.00
2019-03-08T06:08:28.978Z,276.00
2019-03-08T06:09:28.944Z,280.00
2019-03-08T06:10:28.935Z,288.00
2019-03-08T06:11:28.921Z,296.00
2019-03-08T06:12:28.974Z,300.00
2019-03-08T06:13:29.093Z,304.00
2019-03-08T06:14:28.890Z,312.00
2019-03-08T06:15:28.876Z,320.00
2019-03-08T06:16:31.550Z,328.00
2019-03-08T06:17:28.850Z,332.00
2019-03-08T06:18:29.106Z,340.00
2019-03-08T06:19:28.837Z,352.00
2019-03-08T06:20:28.828Z,360.00
2019-03-08T06:21:28.812Z,368.00
2019-03-08T06:22:28.803Z,376.00
2019-03-08T06:23:28.835Z,384.00
2019-03-08T06:24:28.782Z,392.00
2019-03-08T06:25:28.788Z,404.00
2019-03-08T06:26:28.767Z,408.00
2019-03-08T06:27:28.758Z,420.00
2019-03-08T06:28:28.733Z,428.00
2019-03-08T06:29:28.752Z,440.00
2019-03-08T06:30:28.749Z,448.00
2019-03-08T06:31:28.697Z,452.00
2019-03-08T06:33:27.693Z,468.00
2019-03-08T06:34:28.672Z,476.00
2019-03-08T06:35:28.663Z,484.00
2019-03-08T06:36:28.683Z,492.00
2019-03-08T06:37:28.641Z,496.00
2019-03-08T06:38:28.630Z,508.00
2019-03-08T06:39:28.613Z,516.00
2019-03-08T06:40:28.603Z,528.00
2019-03-08T06:41:28.622Z,536.00
2019-03-08T06:44:27.558Z,552.00
2019-03-08T06:45:28.551Z,548.00
2019-03-08T06:46:28.567Z,560.00
2019-03-08T06:47:29.042Z,572.00
2019-03-08T06:48:28.547Z,604.00
2019-03-08T06:49:28.507Z,600.00
2019-03-08T06:50:28.525Z,612.00
2019-03-08T06:51:28.520Z,604.00
2019-03-08T06:52:28.477Z,608.00
2019-03-08T06:53:28.463Z,620.00
2019-03-08T06:54:28.459Z,644.00
2019-03-08T06:55:28.462Z,660.00
2019-03-08T06:56:28.426Z,676.00
2019-03-08T06:57:28.416Z,680.00
2019-03-08T06:58:28.406Z,696.00
2019-03-08T06:59:28.398Z,732.00
2019-03-08T07:00:28.422Z,760.00
2019-03-08T07:01:28.406Z,744.00
2019-03-08T07:02:30.186Z,732.00
2019-03-08T07:03:28.351Z,704.00
2019-03-08T07:04:28.340Z,696.00
2019-03-08T07:05:28.329Z,696.00
2019-03-08T07:06:28.352Z,688.00
2019-03-08T07:07:28.319Z,672.00
2019-03-08T07:08:31.052Z,664.00
2019-03-08T07:09:28.287Z,664.00
2019-03-08T07:10:28.279Z,676.00
2019-03-08T07:11:28.294Z,692.00
2019-03-08T07:12:28.256Z,680.00
2019-03-08T07:13:28.256Z,672.00
2019-03-08T07:14:28.232Z,664.00
2019-03-08T07:15:31.034Z,712.00
2019-03-08T07:16:28.237Z,724.00
2019-03-08T07:17:28.197Z,780.00
2019-03-08T07:18:28.183Z,772.00
2019-03-08T07:19:28.174Z,768.00
2019-03-08T07:20:28.164Z,772.00
2019-03-08T07:21:28.179Z,756.00
2019-03-08T07:22:28.142Z,724.00
2019-03-08T07:23:28.391Z,712.00
2019-03-08T07:24:28.150Z,704.00
2019-03-08T07:25:28.110Z,756.00
2019-03-08T07:26:28.096Z,768.00
2019-03-08T07:27:28.089Z,776.00
2019-03-08T07:28:28.074Z,1156.00
2019-03-08T07:29:28.070Z,1136.00
2019-03-08T07:30:28.080Z,1148.00
2019-03-08T07:31:28.051Z,1136.00
2019-03-08T07:32:28.071Z,1032.00
2019-03-08T07:33:28.026Z,964.00
2019-03-08T07:34:28.066Z,1004.00
2019-03-08T07:35:28.012Z,1132.00
2019-03-08T07:36:27.997Z,1276.00
2019-03-08T07:37:27.987Z,1296.00
2019-03-08T07:38:28.006Z,1508.00
2019-03-08T07:39:27.955Z,1504.00
2019-03-08T07:40:27.944Z,1596.00
2019-03-08T07:41:28.907Z,1544.00
2019-03-08T07:42:27.923Z,1444.00
2019-03-08T07:43:28.098Z,1500.00
2019-03-08T07:44:27.908Z,1336.00
2019-03-08T07:45:27.891Z,1420.00
2019-03-08T07:46:27.880Z,1356.00
2019-03-08T07:47:27.869Z,1344.00
2019-03-08T07:48:27.861Z,1368.00
2019-03-08T07:49:27.879Z,1516.00
2019-03-08T07:50:27.836Z,1680.00
2019-03-08T07:51:27.834Z,1656.00
2019-03-08T07:53:26.802Z,1320.00
2019-03-08T07:54:27.798Z,1328.00
2019-03-08T07:55:27.782Z,1344.00
2019-03-08T07:56:27.770Z,1412.00
2019-03-08T07:57:27.760Z,1624.00
2019-03-08T07:58:27.796Z,1636.00
2019-03-08T07:59:27.743Z,1628.00
2019-03-08T08:00:27.736Z,1508.00
2019-03-08T08:01:27.750Z,1200.00
2019-03-08T08:02:27.706Z,1168.00
2019-03-08T08:03:27.694Z,1144.00
2019-03-08T08:04:27.683Z,1276.00
2019-03-08T08:05:27.668Z,1124.00
2019-03-08T08:06:27.662Z,1048.00
2019-03-08T08:07:27.686Z,1080.00
2019-03-08T08:08:27.636Z,1256.00
2019-03-08T08:09:27.637Z,1456.00
2019-03-08T08:10:27.643Z,1736.00
2019-03-08T08:11:27.602Z,1628.00
2019-03-08T08:12:27.590Z,1892.00
2019-03-08T08:13:27.590Z,2008.00
2019-03-08T08:14:27.567Z,1836.00
2019-03-08T08:15:27.562Z,1552.00
2019-03-08T08:16:27.569Z,1556.00
2019-03-08T08:17:27.542Z,1552.00
2019-03-08T08:18:29.071Z,1556.00
2019-03-08T08:19:27.517Z,1792.00
2019-03-08T08:20:27.508Z,1832.00
2019-03-08T08:21:27.491Z,1724.00
2019-03-08T08:22:27.513Z,1596.00
2019-03-08T08:23:34.088Z,1520.00
2019-03-08T08:24:27.451Z,1280.00
2019-03-08T08:25:36.281Z,1328.00
2019-03-08T08:26:27.444Z,1292.00
2019-03-08T08:27:27.438Z,1348.00
2019-03-08T08:28:27.448Z,1484.00
2019-03-08T08:29:34.664Z,1612.00
2019-03-08T08:30:27.399Z,1684.00
2019-03-08T08:31:27.390Z,1844.00
2019-03-08T08:32:27.386Z,2296.00
2019-03-08T08:33:27.361Z,2560.00
2019-03-08T08:34:27.375Z,2388.00
2019-03-08T08:35:27.339Z,2472.00
2019-03-08T08:36:27.333Z,2276.00
2019-03-08T08:37:27.327Z,2268.00
2019-03-08T08:38:27.307Z,2300.00
2019-03-08T08:39:27.300Z,2156.00
2019-03-08T08:40:27.320Z,2004.00
2019-03-08T08:41:27.274Z,1804.00
2019-03-08T08:42:27.268Z,1928.00
2019-03-08T08:43:27.260Z,2428.00
2019-03-08T08:44:27.249Z,2496.00
2019-03-08T08:45:27.236Z,2324.00
2019-03-08T08:46:27.255Z,2104.00
2019-03-08T08:47:27.243Z,2452.00
2019-03-08T08:48:27.200Z,2648.00
2019-03-08T08:49:27.195Z,2700.00
2019-03-08T08:50:27.174Z,2844.00
2019-03-08T08:51:27.163Z,3136.00
2019-03-08T08:52:27.189Z,3536.00
2019-03-08T08:53:27.150Z,4036.00
2019-03-08T08:54:27.133Z,3460.00
2019-03-08T08:55:27.126Z,3468.00
2019-03-08T08:56:27.112Z,4012.00
2019-03-08T08:57:27.131Z,3980.00
2019-03-08T08:58:27.102Z,3692.00
2019-03-08T08:59:27.079Z,3376.00
2019-03-08T09:00:27.075Z,3912.00
2019-03-08T09:01:27.057Z,4572.00
2019-03-08T09:02:27.061Z,4068.00
2019-03-08T09:03:27.059Z,4112.00
2019-03-08T09:04:29.508Z,5240.00
2019-03-08T09:05:27.015Z,5116.00
2019-03-08T09:06:27.011Z,4308.00
2019-03-08T09:07:26.989Z,3780.00
2019-03-08T09:08:26.983Z,3744.00
2019-03-08T09:09:27.012Z,3744.00
2019-03-08T09:10:26.955Z,3792.00
2019-03-08T09:11:26.956Z,3436.00
2019-03-08T09:12:27.500Z,3136.00
2019-03-08T09:13:26.961Z,3332.00
2019-03-08T09:14:26.916Z,3768.00
2019-03-08T09:15:26.905Z,4136.00
2019-03-08T09:16:26.887Z,4676.00
2019-03-08T09:17:26.900Z,4636.00
2019-03-08T09:18:26.865Z,4580.00
2019-03-08T09:19:26.888Z,4528.00
2019-03-08T09:20:26.848Z,4368.00
2019-03-08T09:21:26.842Z,4448.00
2019-03-08T09:22:26.822Z,4224.00
2019-03-08T09:23:26.814Z,4656.00
2019-03-08T09:24:26.807Z,4852.00
2019-03-08T09:25:27.070Z,4776.00
2019-03-08T09:26:26.809Z,4784.00
2019-03-08T09:27:26.776Z,4660.00
2019-03-08T09:28:26.773Z,4748.00
2019-03-08T09:29:26.755Z,4944.00
2019-03-08T09:30:26.740Z,4924.00
2019-03-08T09:31:26.747Z,4244.00
2019-03-08T09:32:26.715Z,5160.00
2019-03-08T09:33:26.704Z,5300.00
2019-03-08T09:34:26.693Z,5436.00
2019-03-08T09:35:26.691Z,5508.00
2019-03-08T09:36:26.704Z,5552.00
2019-03-08T09:37:26.665Z,5432.00
2019-03-08T09:38:26.654Z,5112.00
2019-03-08T09:39:26.647Z,4568.00
2019-03-08T09:40:26.629Z,4584.00
2019-03-08T09:41:26.636Z,4472.00
2019-03-08T09:42:26.613Z,4360.00
2019-03-08T09:43:26.597Z,4480.00
2019-03-08T09:44:26.601Z,4728.00
2019-03-08T09:45:26.574Z,4616.00
2019-03-08T09:46:26.566Z,4680.00
2019-03-08T09:47:26.585Z,4608.00
2019-03-08T09:48:26.545Z,4640.00
2019-03-08T09:49:26.529Z,4524.00
2019-03-08T09:50:26.524Z,4336.00
2019-03-08T09:51:26.506Z,4384.00
2019-03-08T09:52:26.499Z,4480.00
2019-03-08T09:53:26.511Z,4756.00
2019-03-08T09:54:26.484Z,5180.00
2019-03-08T09:55:26.467Z,5376.00
2019-03-08T09:56:26.447Z,5476.00
2019-03-08T09:57:26.435Z,5516.00
2019-03-08T09:58:26.422Z,5564.00
2019-03-08T09:59:27.542Z,5372.00
2019-03-08T10:00:26.435Z,5228.00
2019-03-08T10:01:26.395Z,5596.00
2019-03-08T10:02:26.385Z,5532.00
2019-03-08T10:03:26.381Z,5496.00
2019-03-08T10:04:26.360Z,5308.00
2019-03-08T10:05:26.376Z,5604.00
2019-03-08T10:06:26.351Z,5688.00
2019-03-08T10:07:26.341Z,5696.00
2019-03-08T10:08:26.324Z,5784.00
2019-03-08T10:09:26.314Z,5784.00
2019-03-08T10:10:26.299Z,5896.00
2019-03-08T10:11:26.317Z,5844.00
2019-03-08T10:12:26.279Z,6008.00
2019-03-08T10:13:26.264Z,6304.00
2019-03-08T10:14:26.568Z,6512.00
2019-03-08T10:15:26.237Z,6368.00
2019-03-08T10:16:26.238Z,6008.00
2019-03-08T10:17:26.221Z,5920.00
2019-03-08T10:18:26.205Z,5424.00
2019-03-08T10:19:26.226Z,5100.00
2019-03-08T10:20:26.251Z,5016.00
2019-03-08T10:21:26.175Z,5088.00
2019-03-08T10:22:26.179Z,5200.00
2019-03-08T10:23:26.154Z,5056.00
2019-03-08T10:24:26.143Z,4844.00
2019-03-08T10:25:26.137Z,4728.00
2019-03-08T10:26:26.144Z,4808.00
2019-03-08T10:27:26.113Z,4632.00
2019-03-08T10:28:26.109Z,4076.00
2019-03-08T10:29:26.092Z,3664.00
2019-03-08T10:30:26.077Z,4116.00
2019-03-08T10:31:26.062Z,3908.00
2019-03-08T10:32:26.091Z,3796.00
2019-03-08T10:33:26.043Z,4272.00
2019-03-08T10:34:26.037Z,4316.00
2019-03-08T10:35:26.053Z,4252.00
2019-03-08T10:36:26.009Z,4140.00
2019-03-08T10:37:25.997Z,4072.00
2019-03-08T10:38:26.026Z,4224.00
2019-03-08T10:39:25.980Z,4312.00
2019-03-08T10:40:25.965Z,4752.00
2019-03-08T10:41:25.958Z,4672.00
2019-03-08T10:42:25.947Z,4664.00
2019-03-08T10:43:25.962Z,4496.00
2019-03-08T10:44:25.931Z,4472.00
2019-03-08T10:45:25.911Z,5416.00
2019-03-08T10:46:25.936Z,6868.00
2019-03-08T10:47:25.886Z,6720.00
2019-03-08T10:48:25.876Z,6812.00
2019-03-08T10:49:25.935Z,6264.00
2019-03-08T10:50:25.856Z,5376.00
2019-03-08T10:51:25.846Z,5496.00
2019-03-08T10:52:25.828Z,6260.00
2019-03-08T10:53:28.479Z,6692.00
2019-03-08T10:54:25.865Z,5836.00
2019-03-08T10:55:25.832Z,6004.00
2019-03-08T10:56:25.794Z,5664.00
2019-03-08T10:57:25.776Z,5604.00
2019-03-08T10:58:25.765Z,5984.00
2019-03-08T10:59:25.751Z,6260.00
2019-03-08T11:00:25.783Z,5576.00
2019-03-08T11:01:25.740Z,5200.00
2019-03-08T11:02:25.717Z,4336.00
2019-03-08T11:03:25.722Z,3600.00
2019-03-08T11:04:25.707Z,3140.00
2019-03-08T11:05:26.477Z,2896.00
2019-03-08T11:06:25.709Z,2224.00
2019-03-08T11:07:25.679Z,2296.00
2019-03-08T11:08:29.786Z,1908.00
2019-03-08T11:09:25.658Z,1932.00
2019-03-08T11:10:25.631Z,2004.00
2019-03-08T11:11:25.663Z,2284.00
2019-03-08T11:12:25.616Z,2084.00
2019-03-08T11:13:25.606Z,2020.00
2019-03-08T11:14:25.590Z,1804.00
2019-03-08T11:15:25.577Z,1804.00
2019-03-08T11:16:25.569Z,1860.00
2019-03-08T11:17:25.925Z,1696.00
2019-03-08T11:18:25.546Z,1544.00
2019-03-08T11:19:27.521Z,1428.00
2019-03-08T11:20:25.529Z,1504.00
2019-03-08T11:21:25.511Z,1532.00
2019-03-08T11:22:25.501Z,1520.00
2019-03-08T11:23:25.530Z,1372.00
2019-03-08T11:24:25.488Z,1240.00
2019-03-08T11:25:34.546Z,1328.00
2019-03-08T11:26:25.458Z,1424.00
2019-03-08T11:27:25.463Z,1588.00
2019-03-08T11:28:25.442Z,1600.00
2019-03-08T11:29:25.454Z,1604.00
2019-03-08T11:30:25.422Z,2028.00
2019-03-08T11:31:25.401Z,1968.00
2019-03-08T11:32:25.431Z,2304.00
2019-03-08T11:33:25.391Z,2296.00
2019-03-08T11:34:25.510Z,2140.00
2019-03-08T11:35:25.384Z,3084.00
2019-03-08T11:36:25.353Z,3572.00
2019-03-08T11:37:25.361Z,3392.00
2019-03-08T11:38:25.329Z,3192.00
2019-03-08T11:39:25.333Z,3352.00
2019-03-08T11:40:25.331Z,4056.00
2019-03-08T11:41:25.300Z,3180.00
2019-03-08T11:42:25.285Z,3332.00
2019-03-08T11:43:25.279Z,4016.00
2019-03-08T11:44:25.263Z,4672.00
2019-03-08T11:45:26.269Z,4544.00
2019-03-08T11:46:25.265Z,5496.00
2019-03-08T11:47:25.225Z,4984.00
2019-03-08T11:48:25.221Z,5176.00
2019-03-08T11:49:25.199Z,4868.00
2019-03-08T11:50:25.207Z,4136.00
2019-03-08T11:51:25.183Z,3872.00
2019-03-08T11:52:25.214Z,4372.00
2019-03-08T11:53:25.171Z,4292.00
2019-03-08T11:54:25.155Z,4564.00
2019-03-08T11:55:25.137Z,3892.00
2019-03-08T11:56:25.134Z,3764.00
2019-03-08T11:57:25.158Z,3596.00
2019-03-08T11:58:25.133Z,3260.00
2019-03-08T11:59:25.095Z,3492.00
2019-03-08T12:00:25.088Z,4696.00
2019-03-08T12:01:25.076Z,4604.00
2019-03-08T12:02:25.067Z,4196.00
2019-03-08T12:03:25.083Z,3632.00
2019-03-08T12:04:25.040Z,3072.00
2019-03-08T12:05:25.032Z,2704.00
2019-03-08T12:06:25.107Z,3260.00
2019-03-08T12:07:25.013Z,3208.00
2019-03-08T12:08:25.003Z,3236.00
2019-03-08T12:09:24.986Z,3848.00
2019-03-08T12:10:24.974Z,3440.00
2019-03-08T12:11:24.961Z,3092.00
2019-03-08T12:12:24.984Z,2968.00
2019-03-08T12:13:24.935Z,3188.00
2019-03-08T12:14:24.941Z,3192.00
2019-03-08T12:15:24.922Z,3036.00
2019-03-08T12:16:24.913Z,3356.00
2019-03-08T12:17:24.916Z,3380.00
2019-03-08T12:18:24.911Z,3280.00
2019-03-08T12:19:24.873Z,2900.00
2019-03-08T12:20:24.907Z,3192.00
2019-03-08T12:21:24.853Z,3760.00
2019-03-08T12:22:24.847Z,3864.00
2019-03-08T12:23:24.826Z,3832.00
2019-03-08T12:24:24.827Z,3896.00
2019-03-08T12:25:24.803Z,3816.00
2019-03-08T12:26:24.824Z,3424.00
2019-03-08T12:27:24.805Z,3212.00
2019-03-08T12:28:24.783Z,3712.00
2019-03-08T12:29:24.769Z,3432.00
2019-03-08T12:30:24.768Z,3076.00
2019-03-08T12:31:24.744Z,3436.00
2019-03-08T12:32:24.757Z,4084.00
2019-03-08T12:33:24.727Z,4936.00
2019-03-08T12:34:24.714Z,5088.00
2019-03-08T12:35:24.701Z,5176.00
2019-03-08T12:36:24.710Z,5480.00
2019-03-08T12:37:24.682Z,5600.00
2019-03-08T12:38:24.693Z,6024.00
2019-03-08T12:39:24.661Z,5532.00
2019-03-08T12:40:24.645Z,4756.00
2019-03-08T12:41:24.638Z,4548.00
2019-03-08T12:42:24.627Z,4744.00
2019-03-08T12:43:24.647Z,5092.00
2019-03-08T12:44:24.609Z,5204.00
2019-03-08T12:45:24.587Z,5264.00
2019-03-08T12:46:24.604Z,5528.00
2019-03-08T12:47:24.565Z,5924.00
2019-03-08T12:48:24.561Z,6220.00
2019-03-08T12:49:24.577Z,6080.00
2019-03-08T12:50:24.537Z,6168.00